Time;durP1;ratioP1;P1;durP2;ratioP2;P2;SDS_P1;SDS_P2;PMS_P1;PMS_P2;Temp;Humidity;BMP_temperature;BMP_pressure;BME280_temperature;BME280_humidity;BME280_pressure;Samples;Min_cycle;Max_cycle;Signal;HPM_P1;HPM_P2
2022/06/17 00:01:39;;;;;;;0.95;0.50;;;16.00;68.90;;;;;;4980545;28;20058;-70
2022/06/17 00:04:06;;;;;;;0.73;0.60;;;16.10;68.80;;;;;;4980814;28;20045;-70
2022/06/17 00:07:02;;;;;;;0.63;0.50;;;16.10;69.00;;;;;;4975293;28;20031;-69
2022/06/17 00:09:31;;;;;;;0.75;0.68;;;16.10;68.70;;;;;;4959371;28;20062;-70
2022/06/17 00:11:57;;;;;;;2.80;0.57;;;16.10;68.90;;;;;;4975985;28;20081;-70
2022/06/17 00:14:31;;;;;;;0.52;0.43;;;16.10;69.10;;;;;;4975101;28;20530;-70
2022/06/17 00:16:58;;;;;;;0.63;0.50;;;16.10;69.30;;;;;;4976492;28;20054;-70
2022/06/17 00:19:24;;;;;;;2.17;0.50;;;16.10;69.50;;;;;;4980773;28;20031;-73
2022/06/17 00:21:52;;;;;;;0.95;0.57;;;16.10;69.40;;;;;;4977327;28;20953;-73
2022/06/17 00:24:31;;;;;;;0.85;0.50;;;16.10;69.70;;;;;;4975795;28;20043;-73
2022/06/17 00:26:57;;;;;;;0.88;0.50;;;16.10;70.00;;;;;;4976491;28;20049;-74
2022/06/17 00:29:27;;;;;;;1.58;0.60;;;16.10;70.30;;;;;;4974136;28;20031;-73
2022/06/17 00:31:53;;;;;;;1.60;0.55;;;16.10;71.20;;;;;;4977811;28;20030;-73
2022/06/17 00:34:19;;;;;;;1.13;0.90;;;16.10;71.60;;;;;;4984496;28;20030;-73
2022/06/17 00:36:45;;;;;;;1.65;0.93;;;16.10;72.10;;;;;;4965414;28;20156;-73
2022/06/17 00:39:20;;;;;;;0.57;0.57;;;16.10;72.30;;;;;;4978098;28;20027;-73
2022/06/17 00:41:52;;;;;;;1.98;0.80;;;16.00;72.50;;;;;;4964084;28;20069;-73
2022/06/17 00:44:29;;;;;;;1.52;0.90;;;16.00;73.00;;;;;;4984027;28;20508;-73
2022/06/17 00:47:14;;;;;;;0.70;0.65;;;16.00;73.60;;;;;;4966851;28;20030;-73
2022/06/17 00:49:53;;;;;;;0.90;0.80;;;16.00;74.20;;;;;;4972957;28;20038;-73
2022/06/17 00:52:30;;;;;;;1.63;0.80;;;15.90;74.40;;;;;;4977142;28;20133;-73
2022/06/17 00:55:04;;;;;;;1.70;0.77;;;15.90;74.50;;;;;;4965523;28;20478;-73
2022/06/17 00:57:37;;;;;;;1.60;1.00;;;15.80;75.30;;;;;;4975398;28;20049;-73
2022/06/17 01:00:18;;;;;;;1.13;0.90;;;15.80;74.70;;;;;;4975554;28;20387;-73
2022/06/17 01:02:54;;;;;;;0.93;0.80;;;15.70;75.10;;;;;;4976063;28;20053;-73
2022/06/17 01:05:28;;;;;;;0.95;0.57;;;15.60;75.50;;;;;;4973812;28;20030;-73
2022/06/17 01:09:56;;;;;;;1.85;0.90;;;15.60;76.10;;;;;;4947207;28;20038;-73
2022/06/17 01:11:07;;;;;;;1.98;0.75;;;15.50;76.60;;;;;;4966250;28;20469;-73
2022/06/17 01:13:33;;;;;;;1.35;0.73;;;15.40;76.70;;;;;;4974375;28;20052;-73
2022/06/17 01:15:59;;;;;;;0.57;0.55;;;15.40;76.80;;;;;;4975818;28;20033;-73
2022/06/17 01:18:30;;;;;;;1.17;0.70;;;15.30;76.50;;;;;;4957393;28;20038;-73
2022/06/17 01:21:08;;;;;;;2.78;0.90;;;15.30;76.50;;;;;;4965840;28;20822;-73
2022/06/17 01:23:35;;;;;;;0.80;0.80;;;15.20;76.40;;;;;;4963809;28;20034;-73
2022/06/17 01:26:00;;;;;;;0.70;0.60;;;15.20;76.40;;;;;;4974940;28;20153;-72
2022/06/17 01:28:26;;;;;;;0.95;0.63;;;15.20;76.60;;;;;;4957578;28;20128;-73
2022/06/17 01:30:57;;;;;;;1.42;0.75;;;15.10;76.30;;;;;;4961781;28;20034;-73
2022/06/17 01:33:28;;;;;;;1.67;0.80;;;15.10;76.30;;;;;;4961464;28;20124;-73
2022/06/17 01:36:18;;;;;;;0.98;0.88;;;15.00;76.20;;;;;;4967202;28;20074;-73
2022/06/17 01:38:48;;;;;;;1.95;0.90;;;15.00;76.30;;;;;;4979425;28;20081;-73
2022/06/17 01:41:15;;;;;;;2.22;0.70;;;15.00;76.30;;;;;;4976744;28;20034;-73
2022/06/17 01:43:44;;;;;;;0.80;0.65;;;14.90;76.40;;;;;;4973243;28;20046;-74
2022/06/17 01:46:15;;;;;;;1.85;1.05;;;14.90;76.50;;;;;;4976904;28;20030;-73
2022/06/17 01:48:48;;;;;;;1.10;0.77;;;14.90;77.00;;;;;;4981761;28;20086;-72
2022/06/17 01:51:16;;;;;;;0.77;0.77;;;14.80;77.00;;;;;;4978643;28;20752;-73
2022/06/17 01:53:48;;;;;;;1.50;1.40;;;14.80;77.10;;;;;;4963309;28;20034;-73
2022/06/17 01:56:17;;;;;;;4.18;0.90;;;14.80;77.40;;;;;;4956053;28;20102;-73
2022/06/17 01:58:58;;;;;;;1.42;0.80;;;14.70;77.40;;;;;;4974613;28;20502;-73
2022/06/17 02:01:28;;;;;;;1.75;0.88;;;14.70;77.50;;;;;;4974605;28;20410;-73
2022/06/17 02:04:07;;;;;;;0.82;0.50;;;14.60;77.80;;;;;;4978043;28;20034;-73
2022/06/17 02:06:46;;;;;;;1.38;0.80;;;14.60;78.10;;;;;;4962265;28;20522;-73
2022/06/17 02:09:14;;;;;;;1.20;0.80;;;14.60;78.10;;;;;;4980236;28;20042;-73
2022/06/17 02:11:40;;;;;;;1.20;0.80;;;14.60;77.90;;;;;;4961003;28;20027;-73
2022/06/17 02:14:17;;;;;;;1.45;0.85;;;14.50;78.00;;;;;;4966677;28;20039;-74
2022/06/17 02:16:52;;;;;;;1.77;1.00;;;14.50;78.20;;;;;;4983252;28;20074;-73
2022/06/17 02:19:42;;;;;;;0.88;0.73;;;14.50;78.30;;;;;;4967731;28;20057;-73
2022/06/17 02:22:14;;;;;;;1.40;0.50;;;14.50;78.40;;;;;;4963249;28;20045;-73
2022/06/17 02:24:41;;;;;;;1.00;0.90;;;14.50;78.50;;;;;;4985303;28;20118;-73
2022/06/17 02:27:09;;;;;;;0.70;0.70;;;14.40;79.00;;;;;;4967384;28;20049;-73
2022/06/17 02:29:39;;;;;;;3.45;0.70;;;14.40;79.20;;;;;;4982891;28;20038;-73
2022/06/17 02:32:07;;;;;;;2.47;0.88;;;14.40;79.20;;;;;;4965094;28;20026;-73
2022/06/17 02:34:41;;;;;;;1.77;0.85;;;14.30;79.10;;;;;;4979573;28;20037;-73
2022/06/17 02:37:14;;;;;;;1.65;0.70;;;14.30;79.20;;;;;;4968355;28;20039;-73
2022/06/17 02:39:47;;;;;;;2.58;1.08;;;14.20;79.60;;;;;;4981321;28;20038;-73
2022/06/17 02:42:17;;;;;;;3.30;1.20;;;14.20;79.40;;;;;;4982862;28;20049;-73
2022/06/17 02:44:46;;;;;;;1.10;0.95;;;14.20;79.30;;;;;;4979070;28;20076;-73
2022/06/17 02:47:12;;;;;;;1.42;1.20;;;14.10;79.70;;;;;;4983093;28;20129;-73
2022/06/17 02:49:40;;;;;;;2.13;0.98;;;14.10;80.20;;;;;;4963087;28;20035;-73
2022/06/17 02:52:13;;;;;;;1.10;1.00;;;14.00;80.70;;;;;;4984598;28;20030;-74
2022/06/17 02:54:44;;;;;;;1.23;0.98;;;14.00;81.40;;;;;;4979216;28;20026;-73
2022/06/17 02:57:20;;;;;;;2.45;1.05;;;14.00;81.80;;;;;;4968321;28;20042;-73
2022/06/17 02:59:51;;;;;;;2.53;1.05;;;13.90;82.30;;;;;;4966029;28;20026;-73
2022/06/17 03:02:29;;;;;;;1.08;1.00;;;13.90;82.90;;;;;;4982696;28;20062;-73
2022/06/17 03:04:59;;;;;;;2.22;1.10;;;13.90;83.80;;;;;;4978061;28;20550;-73
2022/06/17 03:07:29;;;;;;;1.48;1.00;;;13.90;84.00;;;;;;4981259;28;20405;-73
2022/06/17 03:10:13;;;;;;;2.28;1.23;;;13.90;84.00;;;;;;4966963;28;20034;-73
2022/06/17 03:12:40;;;;;;;1.00;1.00;;;13.90;84.10;;;;;;4983275;28;20042;-73
2022/06/17 03:15:13;;;;;;;1.15;1.05;;;13.90;84.30;;;;;;4980227;28;20462;-73
2022/06/17 03:17:44;;;;;;;1.13;1.02;;;13.90;84.30;;;;;;4966656;28;20054;-73
2022/06/17 03:20:24;;;;;;;1.20;1.00;;;13.90;84.50;;;;;;4966280;28;20034;-73
2022/06/17 03:23:01;;;;;;;1.75;1.10;;;13.90;84.50;;;;;;4981056;28;20093;-73
2022/06/17 03:25:44;;;;;;;1.55;1.10;;;13.90;84.70;;;;;;4962187;28;20034;-73
2022/06/17 03:28:14;;;;;;;1.67;0.90;;;13.80;84.90;;;;;;4984743;28;20030;-73
2022/06/17 03:31:14;;;;;;;1.42;0.90;;;13.80;85.00;;;;;;4982739;28;20044;-73
2022/06/17 03:34:07;;;;;;;2.85;1.25;;;13.80;85.20;;;;;;4980876;28;20104;-73
2022/06/17 03:36:47;;;;;;;2.13;1.25;;;13.80;85.60;;;;;;4979457;28;20108;-74
2022/06/17 03:39:32;;;;;;;2.20;1.10;;;13.80;85.80;;;;;;4964631;28;20057;-73
2022/06/17 03:42:03;;;;;;;2.00;1.27;;;13.90;85.80;;;;;;4979178;28;20030;-73
2022/06/17 03:44:40;;;;;;;1.75;1.58;;;13.90;85.90;;;;;;4977296;28;20050;-73
2022/06/17 03:47:23;;;;;;;1.50;1.10;;;13.90;85.90;;;;;;4981715;28;20034;-73
2022/06/17 03:49:54;;;;;;;1.52;1.23;;;13.90;85.80;;;;;;4963562;28;20026;-73
2022/06/17 03:52:45;;;;;;;4.00;1.30;;;13.90;85.80;;;;;;4977104;28;20169;-73
2022/06/17 03:55:17;;;;;;;1.30;1.20;;;13.90;85.90;;;;;;4979849;28;20516;-73
2022/06/17 03:57:45;;;;;;;1.73;1.10;;;14.00;85.90;;;;;;4963017;28;20023;-73
2022/06/17 04:00:36;;;;;;;2.10;1.23;;;14.00;85.90;;;;;;4977278;28;20540;-74
2022/06/17 04:03:04;;;;;;;3.20;1.23;;;14.10;85.80;;;;;;4961287;28;20050;-73
2022/06/17 04:05:31;;;;;;;3.33;1.40;;;14.10;85.60;;;;;;4963936;28;20027;-73
2022/06/17 04:07:58;;;;;;;2.60;1.60;;;14.20;85.60;;;;;;4969456;28;20026;-73
2022/06/17 04:10:28;;;;;;;1.33;1.20;;;14.20;85.60;;;;;;4980366;28;20037;-73
2022/06/17 04:12:58;;;;;;;2.47;1.20;;;14.20;85.60;;;;;;4978158;28;20073;-73
2022/06/17 04:15:51;;;;;;;1.70;1.50;;;14.30;85.50;;;;;;4983220;28;20077;-73
2022/06/17 04:18:16;;;;;;;1.58;1.40;;;14.30;85.60;;;;;;4979631;28;20041;-73
2022/06/17 04:20:49;;;;;;;3.72;1.42;;;14.30;85.70;;;;;;4964673;28;20062;-73
2022/06/17 04:23:19;;;;;;;2.03;1.65;;;14.30;85.80;;;;;;4977425;28;20088;-74
2022/06/17 04:26:15;;;;;;;1.63;1.50;;;14.40;85.80;;;;;;4981930;28;20485;-74
2022/06/17 04:28:52;;;;;;;2.15;1.42;;;14.40;85.90;;;;;;4950114;28;20398;-74
2022/06/17 04:31:27;;;;;;;3.20;1.55;;;14.40;86.00;;;;;;4979286;28;21024;-74
2022/06/17 04:34:16;;;;;;;2.58;1.70;;;14.50;86.00;;;;;;4962384;28;20031;-74
2022/06/17 04:36:59;;;;;;;3.08;1.80;;;14.60;86.00;;;;;;4962953;28;20073;-74
2022/06/17 04:39:43;;;;;;;2.55;1.60;;;14.60;86.00;;;;;;4964273;28;20037;-74
2022/06/17 04:42:38;;;;;;;3.42;1.92;;;14.70;85.90;;;;;;4977378;28;20129;-74
2022/06/17 04:45:06;;;;;;;1.95;1.55;;;14.80;85.80;;;;;;4978382;28;20038;-74
2022/06/17 04:47:36;;;;;;;5.05;1.90;;;14.90;85.70;;;;;;4965849;28;20026;-74
2022/06/17 04:50:15;;;;;;;2.83;1.70;;;14.90;86.30;;;;;;4968035;28;20039;-74
2022/06/17 04:52:44;;;;;;;4.63;1.80;;;15.00;85.60;;;;;;4963928;28;20121;-73
2022/06/17 04:55:28;;;;;;;2.78;2.00;;;15.10;85.50;;;;;;4980301;28;20122;-74
2022/06/17 04:58:06;;;;;;;2.38;1.65;;;15.10;85.60;;;;;;4963054;28;20022;-74
2022/06/17 05:00:32;;;;;;;3.60;1.70;;;15.30;85.70;;;;;;4978741;28;20801;-74
2022/06/17 05:03:00;;;;;;;2.45;1.85;;;15.40;85.40;;;;;;4977984;28;20030;-74
2022/06/17 05:05:41;;;;;;;2.92;1.52;;;15.50;85.20;;;;;;4982096;28;20049;-74
2022/06/17 05:08:20;;;;;;;2.15;1.77;;;15.60;85.00;;;;;;4978305;28;20038;-74
2022/06/17 05:10:55;;;;;;;3.05;1.80;;;15.70;84.80;;;;;;4975559;28;20054;-74
2022/06/17 05:13:27;;;;;;;;;;;15.90;84.40;;;;;;4975771;28;20037;-74
2022/06/17 05:15:56;;;;;;;5.15;1.60;;;16.00;83.90;;;;;;4982207;28;19941;-74
2022/06/17 05:18:22;;;;;;;2.45;1.60;;;16.10;83.10;;;;;;4961188;28;20057;-74
2022/06/17 05:20:54;;;;;;;2.95;1.77;;;16.30;82.80;;;;;;4963700;28;20113;-74
2022/06/17 05:23:21;;;;;;;3.40;1.70;;;16.50;82.20;;;;;;4962610;28;20108;-74
2022/06/17 05:25:50;;;;;;;3.50;1.70;;;16.80;81.00;;;;;;4977029;28;20031;-74
2022/06/17 05:28:20;;;;;;;2.92;1.42;;;17.20;79.60;;;;;;4979010;28;20060;-73
2022/06/17 05:30:51;;;;;;;3.10;1.92;;;17.40;78.60;;;;;;4979573;28;20031;-75
2022/06/17 05:33:20;;;;;;;1.48;1.33;;;17.50;78.10;;;;;;4977461;28;20521;-74
2022/06/17 05:35:46;;;;;;;3.90;1.98;;;17.50;78.10;;;;;;4976708;28;20091;-75
2022/06/17 05:38:12;;;;;;;3.35;1.85;;;17.50;77.60;;;;;;4975981;28;20026;-74
2022/06/17 05:40:40;;;;;;;3.88;2.00;;;17.60;77.70;;;;;;4962891;28;20514;-74
2022/06/17 05:43:06;;;;;;;3.03;1.73;;;17.60;75.70;;;;;;4943630;28;20042;-75
2022/06/17 05:45:33;;;;;;;4.82;2.17;;;17.70;75.50;;;;;;4959166;28;20037;-74
2022/06/17 05:48:15;;;;;;;5.55;1.85;;;17.80;75.30;;;;;;4965433;28;20065;-75
2022/06/17 05:51:03;;;;;;;3.13;1.83;;;17.90;75.20;;;;;;4978469;28;20125;-74
2022/06/17 05:53:49;;;;;;;3.00;1.67;;;18.00;74.60;;;;;;4977993;28;20133;-74
2022/06/17 05:56:27;;;;;;;3.17;1.60;;;18.10;73.80;;;;;;4979959;28;20034;-74
2022/06/17 05:58:53;;;;;;;3.50;1.55;;;18.20;72.90;;;;;;4969260;28;20035;-75
2022/06/17 06:01:19;;;;;;;4.18;1.92;;;18.30;72.40;;;;;;4979767;28;20103;-74
2022/06/17 06:03:46;;;;;;;2.08;1.75;;;18.50;71.80;;;;;;4982222;28;20034;-73
2022/06/17 06:06:12;;;;;;;6.70;2.03;;;18.60;71.30;;;;;;4967112;28;20034;-73
2022/06/17 06:08:39;;;;;;;3.88;1.73;;;18.70;70.70;;;;;;4983332;28;20041;-73
2022/06/17 06:11:06;;;;;;;1.75;1.40;;;18.80;70.70;;;;;;4969257;28;20034;-70
2022/06/17 06:13:37;;;;;;;4.72;2.30;;;18.90;71.00;;;;;;4980620;28;20035;-71
2022/06/17 06:16:04;;;;;;;3.75;2.00;;;19.10;70.20;;;;;;4981389;28;20022;-70
2022/06/17 06:18:34;;;;;;;5.40;2.10;;;19.30;69.30;;;;;;4979967;28;20037;-71
2022/06/17 06:21:06;;;;;;;2.45;1.65;;;19.30;69.20;;;;;;4969363;28;20026;-71
2022/06/17 06:23:36;;;;;;;9.73;2.35;;;19.30;69.00;;;;;;4965473;28;20034;-70
2022/06/17 06:26:03;;;;;;;3.53;2.00;;;19.40;68.80;;;;;;4964428;28;20030;-71
2022/06/17 06:28:29;;;;;;;4.65;1.95;;;19.50;68.20;;;;;;4963302;28;20410;-71
2022/06/17 06:31:32;;;;;;;3.60;1.85;;;19.60;68.00;;;;;;4980618;28;20110;-71
2022/06/17 06:34:03;;;;;;;4.97;2.50;;;19.60;67.10;;;;;;4961845;28;20019;-71
2022/06/17 06:36:37;;;;;;;4.07;2.20;;;19.60;67.00;;;;;;4947689;28;20090;-71
2022/06/17 06:39:03;;;;;;;7.85;2.22;;;19.70;67.10;;;;;;4975743;28;20429;-71
2022/06/17 06:41:29;;;;;;;4.85;2.20;;;19.70;66.30;;;;;;4964826;28;20049;-71
2022/06/17 06:43:56;;;;;;;4.72;2.05;;;19.70;65.90;;;;;;4966207;28;20038;-70
2022/06/17 06:46:25;;;;;;;3.47;2.10;;;19.80;65.90;;;;;;4978936;28;20035;-71
2022/06/17 06:48:51;;;;;;;5.00;2.30;;;19.90;65.10;;;;;;4967380;28;20919;-71
2022/06/17 06:51:19;;;;;;;3.90;2.25;;;20.10;64.90;;;;;;4969007;28;20184;-71
2022/06/17 06:53:45;;;;;;;7.07;2.22;;;20.10;65.00;;;;;;4982249;28;20038;-70
2022/06/17 06:56:11;;;;;;;2.97;2.30;;;20.20;64.70;;;;;;4965876;28;20506;-71
2022/06/17 06:58:38;;;;;;;16.30;7.57;;;20.30;64.20;;;;;;4976295;28;20058;-71
2022/06/17 07:01:04;;;;;;;6.78;3.13;;;20.40;64.50;;;;;;4963888;28;20152;-70
2022/06/17 07:03:30;;;;;;;3.22;2.78;;;20.50;63.40;;;;;;4975938;28;20030;-71
2022/06/17 07:06:04;;;;;;;2.38;1.65;;;20.60;63.00;;;;;;4979544;28;20034;-71
2022/06/17 07:08:34;;;;;;;2.72;2.03;;;20.60;63.20;;;;;;4962348;28;20034;-72
2022/06/17 07:11:01;;;;;;;4.45;2.17;;;20.70;62.90;;;;;;4978700;28;20038;-71
2022/06/17 07:13:28;;;;;;;3.40;2.28;;;20.80;62.40;;;;;;4977102;28;20026;-71
2022/06/17 07:15:55;;;;;;;6.80;2.42;;;21.00;61.70;;;;;;4979776;28;20149;-71
2022/06/17 07:18:24;;;;;;;7.05;2.10;;;21.00;61.80;;;;;;4962506;28;20045;-71
2022/06/17 07:20:54;;;;;;;5.70;2.40;;;21.10;60.90;;;;;;4977525;28;20549;-71
2022/06/17 07:23:29;;;;;;;5.55;2.05;;;21.20;60.50;;;;;;4981076;28;20770;-71
2022/06/17 07:25:57;;;;;;;5.55;1.95;;;21.40;60.10;;;;;;4979146;28;20058;-71
2022/06/17 07:28:25;;;;;;;4.28;2.33;;;21.40;59.90;;;;;;4974503;28;20041;-71
2022/06/17 07:30:53;;;;;;;5.22;2.53;;;21.50;59.60;;;;;;4977051;28;20837;-72
2022/06/17 07:33:20;;;;;;;7.90;2.22;;;21.50;59.10;;;;;;4976607;28;20144;-72
2022/06/17 07:35:48;;;;;;;5.90;2.15;;;21.60;58.90;;;;;;4971807;28;20597;-71
2022/06/17 07:41:02;;;;;;;3.97;1.83;;;21.60;58.70;;;;;;4979241;28;20042;-69
2022/06/17 07:43:28;;;;;;;7.93;2.30;;;21.60;58.60;;;;;;4977720;28;20064;-69
2022/06/17 07:45:54;;;;;;;4.03;1.75;;;21.70;58.10;;;;;;4980054;28;20829;-70
2022/06/17 07:48:20;;;;;;;7.40;1.92;;;21.80;57.50;;;;;;4976429;28;20027;-69
2022/06/17 07:50:46;;;;;;;5.95;1.85;;;21.90;56.70;;;;;;4974244;28;20587;-64
2022/06/17 07:53:13;;;;;;;8.15;2.08;;;22.00;56.60;;;;;;4982502;28;20565;-72
2022/06/17 07:55:41;;;;;;;2.63;1.85;;;22.10;55.30;;;;;;4980184;28;20078;-71
2022/06/17 07:58:07;;;;;;;5.22;2.17;;;22.20;55.40;;;;;;4976070;28;20053;-72
2022/06/17 08:00:41;;;;;;;4.78;1.77;;;22.30;55.70;;;;;;4961541;28;20026;-72
2022/06/17 08:03:07;;;;;;;5.65;1.95;;;22.40;54.60;;;;;;4975910;28;20022;-72
2022/06/17 08:05:34;;;;;;;4.85;1.77;;;22.50;54.60;;;;;;4976320;28;20057;-72
2022/06/17 08:08:03;;;;;;;4.28;1.88;;;22.50;54.00;;;;;;4975514;28;20041;-71
2022/06/17 08:10:32;;;;;;;4.53;2.03;;;22.70;54.30;;;;;;4983108;28;20069;-72
2022/06/17 08:12:57;;;;;;;3.53;1.77;;;22.70;54.30;;;;;;4977248;28;20102;-71
2022/06/17 08:15:24;;;;;;;4.75;2.10;;;22.80;53.40;;;;;;4978890;28;20034;-69
2022/06/17 08:17:50;;;;;;;8.07;3.97;;;22.80;53.00;;;;;;4974873;28;20073;-65
2022/06/17 08:20:22;;;;;;;3.03;1.88;;;22.80;53.30;;;;;;4971529;28;20113;-65
2022/06/17 08:22:48;;;;;;;5.28;1.85;;;22.80;53.00;;;;;;4979369;28;20041;-65
2022/06/17 08:25:15;;;;;;;4.13;1.88;;;22.90;53.30;;;;;;4978529;28;20161;-64
2022/06/17 08:27:46;;;;;;;3.47;1.95;;;23.00;52.60;;;;;;4979638;28;20048;-64
2022/06/17 08:30:13;;;;;;;3.78;2.00;;;23.10;51.20;;;;;;4979493;28;20039;-64
2022/06/17 08:32:45;;;;;;;2.70;1.20;;;23.20;51.30;;;;;;4978727;28;20038;-63
2022/06/17 08:35:20;;;;;;;2.25;1.40;;;23.30;50.70;;;;;;4975698;28;20027;-64
2022/06/17 08:37:48;;;;;;;3.97;1.38;;;23.30;51.00;;;;;;4965461;28;20023;-64
2022/06/17 08:40:32;;;;;;;3.13;1.30;;;23.30;48.90;;;;;;4981021;28;20761;-64
2022/06/17 08:43:10;;;;;;;2.75;1.20;;;23.30;50.30;;;;;;4978669;28;20038;-65
2022/06/17 08:46:02;;;;;;;2.42;1.40;;;23.30;49.20;;;;;;4947524;28;76689;-65
2022/06/17 08:48:44;;;;;;;5.20;1.58;;;23.30;49.30;;;;;;4983133;28;20494;-64
2022/06/17 08:51:43;;;;;;;2.47;1.10;;;23.70;48.60;;;;;;4993446;28;20202;-65
2022/06/17 08:55:57;;;;;;;4.45;1.42;;;24.40;47.20;;;;;;5035920;28;20787;-65
2022/06/17 08:58:28;;;;;;;3.60;1.30;;;25.60;45.20;;;;;;5031403;28;20440;-66
2022/06/17 09:01:19;;;;;;;3.03;1.38;;;25.30;44.50;;;;;;5042085;28;20029;-65
2022/06/17 09:04:11;;;;;;;3.33;1.52;;;25.00;44.70;;;;;;5043179;28;20123;-65
2022/06/17 09:06:46;;;;;;;3.95;1.27;;;24.60;44.50;;;;;;5036947;28;20037;-65
2022/06/17 09:09:36;;;;;;;4.72;1.27;;;24.30;45.10;;;;;;5033882;28;20079;-65
2022/06/17 09:12:40;;;;;;;3.67;1.50;;;24.10;45.30;;;;;;5033988;28;20072;-65
2022/06/17 09:15:32;;;;;;;4.93;2.22;;;24.00;45.90;;;;;;5027698;28;20040;-66
2022/06/17 09:18:21;;;;;;;3.42;1.40;;;24.10;46.30;;;;;;5028947;28;20479;-65
2022/06/17 09:20:52;;;;;;;5.78;2.40;;;24.00;45.70;;;;;;5035034;28;20029;-65
2022/06/17 09:23:23;;;;;;;4.05;1.92;;;24.00;46.00;;;;;;5036738;28;20038;-66
2022/06/17 09:25:50;;;;;;;3.38;1.63;;;24.00;45.70;;;;;;5035707;28;20029;-65
2022/06/17 09:28:40;;;;;;;2.60;1.30;;;24.20;45.20;;;;;;5036766;28;20049;-65
2022/06/17 09:31:13;;;;;;;2.28;1.00;;;24.30;44.40;;;;;;5037030;28;20052;-65
2022/06/17 09:33:47;;;;;;;3.70;1.63;;;24.40;44.20;;;;;;5025828;28;20041;-63
2022/06/17 09:36:28;;;;;;;4.00;1.30;;;25.00;44.10;;;;;;5033731;28;20485;-66
2022/06/17 09:39:04;;;;;;;2.38;1.75;;;25.00;43.10;;;;;;5031212;28;20089;-66
2022/06/17 09:41:38;;;;;;;3.00;1.30;;;24.80;44.00;;;;;;5036579;28;20033;-66
2022/06/17 09:44:17;;;;;;;3.17;1.48;;;24.60;44.60;;;;;;5032745;28;20060;-63
2022/06/17 09:46:51;;;;;;;2.45;1.38;;;24.60;44.40;;;;;;5032483;28;20037;-66
2022/06/17 09:49:35;;;;;;;4.32;1.63;;;24.60;45.00;;;;;;5041326;28;20472;-66
2022/06/17 09:52:52;;;;;;;6.10;1.30;;;24.50;44.40;;;;;;5037911;28;20123;-66
2022/06/17 09:55:43;;;;;;;3.13;1.27;;;24.40;44.70;;;;;;5032859;28;20038;-66
2022/06/17 09:58:29;;;;;;;1.40;1.00;;;24.40;44.70;;;;;;5030999;28;20087;-66
2022/06/17 10:00:56;;;;;;;;;;;24.50;43.90;;;;;;5035749;28;20033;-66
2022/06/17 10:03:34;;;;;;;4.38;1.38;;;24.60;43.10;;;;;;5032583;28;20000;-66
2022/06/17 10:06:27;;;;;;;2.65;1.20;;;24.80;43.60;;;;;;5032918;28;20576;-65
2022/06/17 10:09:34;;;;;;;1.23;1.10;;;24.80;43.70;;;;;;5016588;28;20039;-66
2022/06/17 10:12:10;;;;;;;1.98;1.50;;;24.90;43.20;;;;;;5019409;28;20044;-66
2022/06/17 10:15:09;;;;;;;1.95;1.40;;;25.10;43.20;;;;;;5022568;28;20667;-64
2022/06/17 10:20:55;;;;;;;3.00;2.13;;;25.30;42.80;;;;;;5020728;28;20485;-66
2022/06/17 10:23:39;;;;;;;4.90;2.25;;;25.30;43.40;;;;;;5022731;28;20037;-66
2022/06/17 10:26:42;;;;;;;4.55;1.95;;;25.30;41.80;;;;;;5020800;28;20765;-66
2022/06/17 10:29:42;;;;;;;2.45;1.48;;;25.20;42.20;;;;;;5021591;28;20132;-66
2022/06/17 10:32:08;;;;;;;3.17;1.27;;;25.20;42.60;;;;;;5026760;28;20029;-66
2022/06/17 10:34:41;;;;;;;2.08;1.25;;;25.30;42.60;;;;;;5021722;28;20041;-66
2022/06/17 10:37:07;;;;;;;3.75;1.58;;;25.50;42.50;;;;;;5016185;28;20029;-66
2022/06/17 10:39:35;;;;;;;4.15;1.98;;;25.60;41.70;;;;;;5016359;28;20034;-66
2022/06/17 10:42:03;;;;;;;1.65;1.15;;;25.60;40.20;;;;;;5019192;28;20075;-65
2022/06/17 10:44:30;;;;;;;3.17;2.58;;;25.60;40.70;;;;;;5020571;28;20127;-68
2022/06/17 10:47:15;;;;;;;9.07;2.80;;;25.60;41.90;;;;;;5018780;28;20174;-69
2022/06/17 10:49:48;;;;;;;2.47;1.38;;;25.90;41.10;;;;;;5018675;28;20086;-68
2022/06/17 10:52:34;;;;;;;3.30;1.33;;;26.90;38.70;;;;;;5017265;28;20476;-68
2022/06/17 10:55:03;;;;;;;2.15;0.85;;;28.60;36.80;;;;;;5018485;28;20088;-69
2022/06/17 10:57:37;;;;;;;3.15;1.30;;;29.00;36.10;;;;;;5023884;28;20048;-69
2022/06/17 11:00:25;;;;;;;2.95;1.90;;;28.50;36.40;;;;;;5023053;28;20544;-69
2022/06/17 11:02:51;;;;;;;4.93;2.78;;;27.90;37.70;;;;;;5022118;28;20028;-69
2022/06/17 11:05:36;;;;;;;3.45;1.67;;;27.40;38.40;;;;;;5024662;28;20029;-69
2022/06/17 11:08:02;;;;;;;1.92;1.33;;;27.00;39.20;;;;;;5014937;28;20121;-69
2022/06/17 11:10:30;;;;;;;4.68;1.65;;;26.60;39.60;;;;;;5014663;28;20128;-71
2022/06/17 11:13:02;;;;;;;5.15;1.60;;;26.30;40.60;;;;;;5015038;28;20030;-67
2022/06/17 11:15:33;;;;;;;2.08;1.50;;;26.20;40.50;;;;;;5015798;28;20038;-72
2022/06/17 11:18:05;;;;;;;1.35;1.20;;;26.20;40.80;;;;;;5021868;28;20029;-74
2022/06/17 11:20:33;;;;;;;2.40;0.82;;;26.00;39.70;;;;;;5021107;28;20040;-74
2022/06/17 11:23:16;;;;;;;6.35;1.05;;;25.90;39.80;;;;;;5026550;28;20029;-74
2022/06/17 11:25:43;;;;;;;7.13;1.13;;;25.80;40.00;;;;;;5017681;28;20029;-74
2022/06/17 11:28:18;;;;;;;9.82;1.75;;;25.90;40.60;;;;;;5018484;28;20033;-74
2022/06/17 11:30:54;;;;;;;1.10;0.70;;;26.00;40.70;;;;;;5019351;28;20118;-73
2022/06/17 11:33:24;;;;;;;2.00;1.40;;;26.10;39.80;;;;;;5017335;28;21073;-73
2022/06/17 11:36:19;;;;;;;3.50;1.00;;;26.20;39.80;;;;;;5020005;28;20037;-73
2022/06/17 11:38:45;;;;;;;2.00;0.70;;;26.00;39.30;;;;;;5026140;28;20129;-73
2022/06/17 11:41:28;;;;;;;2.13;1.00;;;26.00;39.70;;;;;;5020501;28;20025;-71
2022/06/17 11:44:04;;;;;;;3.55;0.80;;;26.20;39.80;;;;;;5020264;28;20037;-72
2022/06/17 11:46:33;;;;;;;3.83;0.93;;;26.40;38.70;;;;;;5021532;28;20790;-71
2022/06/17 11:49:13;;;;;;;3.67;0.98;;;26.30;39.40;;;;;;5021388;28;20826;-67
2022/06/17 11:51:50;;;;;;;3.92;1.10;;;26.40;39.50;;;;;;5015929;28;20034;-75
2022/06/17 11:54:33;;;;;;;2.83;1.48;;;26.50;39.40;;;;;;5014112;28;20090;-75
2022/06/17 11:57:13;;;;;;;2.35;1.00;;;26.50;39.50;;;;;;5024188;28;20047;-74
2022/06/17 11:59:46;;;;;;;1.25;0.80;;;26.50;39.80;;;;;;5027978;28;20429;-73
2022/06/17 12:02:13;;;;;;;2.35;0.70;;;26.50;39.20;;;;;;5018831;28;20021;-72
2022/06/17 12:04:48;;;;;;;1.70;0.95;;;26.50;39.20;;;;;;5020327;28;20026;-72
2022/06/17 12:07:31;;;;;;;1.95;1.02;;;26.70;39.10;;;;;;5019929;28;20493;-72
2022/06/17 12:10:16;;;;;;;1.05;0.82;;;26.90;38.20;;;;;;5021885;28;20036;-72
2022/06/17 12:12:43;;;;;;;4.55;0.80;;;27.10;38.60;;;;;;5023480;28;20081;-72
2022/06/17 12:15:09;;;;;;;2.75;0.95;;;27.00;38.30;;;;;;5028526;28;20489;-72
2022/06/17 12:17:38;;;;;;;1.67;0.80;;;27.10;38.10;;;;;;5021706;28;20079;-72
2022/06/17 12:20:44;;;;;;;1.45;0.90;;;27.10;38.00;;;;;;5015234;28;20092;-72
2022/06/17 12:23:26;;;;;;;2.28;0.90;;;27.10;37.60;;;;;;4993525;28;20125;-72
2022/06/17 12:26:00;;;;;;;0.90;0.90;;;27.00;38.20;;;;;;5018447;28;20041;-72
2022/06/17 12:28:44;;;;;;;1.58;0.90;;;26.90;38.30;;;;;;5018791;28;20026;-72
2022/06/17 12:31:48;;;;;;;4.15;0.98;;;27.00;38.30;;;;;;5021067;28;20030;-72
2022/06/17 12:34:23;;;;;;;2.10;0.80;;;27.20;37.50;;;;;;5026841;28;20128;-73
2022/06/17 12:36:51;;;;;;;;;;;27.50;36.80;;;;;;5031535;28;20033;-74
2022/06/17 12:39:42;;;;;;;1.75;0.90;;;27.70;37.20;;;;;;5029602;28;19955;-74
2022/06/17 12:42:32;;;;;;;1.67;0.80;;;27.90;37.40;;;;;;5022705;28;20036;-73
2022/06/17 12:45:22;;;;;;;1.80;1.00;;;28.10;36.00;;;;;;5030523;28;20041;-73
2022/06/17 12:48:03;;;;;;;1.02;0.77;;;28.30;36.80;;;;;;5022167;28;20032;-73
2022/06/17 12:54:02;;;;;;;1.65;0.90;;;28.60;36.00;;;;;;5025305;28;20033;-73
2022/06/17 12:56:47;;;;;;;0.88;0.82;;;28.80;35.50;;;;;;5023729;28;20061;-73
2022/06/17 12:59:45;;;;;;;1.48;0.93;;;28.90;34.80;;;;;;5020455;28;20116;-72
2022/06/17 13:02:21;;;;;;;4.32;1.05;;;28.70;35.10;;;;;;5025906;28;20045;-73
2022/06/17 13:05:09;;;;;;;1.10;0.95;;;28.50;36.00;;;;;;5027993;28;20549;-69
2022/06/17 13:08:09;;;;;;;2.05;0.70;;;28.40;36.50;;;;;;5023807;28;20452;-71
2022/06/17 13:11:05;;;;;;;1.30;0.77;;;28.20;36.00;;;;;;5022785;28;20037;-72
2022/06/17 13:13:42;;;;;;;0.95;0.90;;;28.30;36.40;;;;;;4987099;28;20418;-71
2022/06/17 13:16:26;;;;;;;3.42;1.10;;;28.50;35.90;;;;;;5019332;28;20026;-75
2022/06/17 13:19:08;;;;;;;1.00;0.90;;;28.50;35.50;;;;;;5014128;28;20042;-74
2022/06/17 13:21:39;;;;;;;1.90;0.93;;;28.60;35.20;;;;;;5036333;28;20079;-77
2022/06/17 13:24:31;;;;;;;1.40;0.80;;;28.70;35.80;;;;;;5013963;28;20033;-75
2022/06/17 13:27:04;;;;;;;1.17;0.70;;;28.80;34.80;;;;;;5028577;28;20040;-71
2022/06/17 13:29:40;;;;;;;1.67;0.90;;;28.80;34.90;;;;;;5023783;28;20030;-71
2022/06/17 13:32:10;;;;;;;2.42;0.90;;;28.80;34.60;;;;;;5030495;28;20037;-71
2022/06/17 13:34:41;;;;;;;4.25;0.88;;;28.90;34.80;;;;;;5025985;28;20132;-71
2022/06/17 13:37:14;;;;;;;1.73;0.82;;;29.00;34.50;;;;;;5023448;28;20109;-70
2022/06/17 13:39:48;;;;;;;2.10;1.30;;;29.10;33.70;;;;;;5023332;28;20482;-69